createdAt,value
2022-12-05T00:01:24.093Z,2.04
2022-12-05T00:03:53.418Z,2.09
2022-12-05T00:06:22.140Z,2.11
2022-12-05T00:08:49.558Z,2.09
2022-12-05T00:11:22.621Z,2.11
2022-12-05T00:13:51.764Z,2.13
2022-12-05T00:16:21.655Z,2.13
2022-12-05T00:18:49.280Z,2.14
2022-12-05T00:21:21.870Z,2.13
2022-12-05T00:23:49.873Z,2.14
2022-12-05T00:26:17.275Z,2.14
2022-12-05T00:28:44.676Z,2.18
2022-12-05T00:31:16.435Z,2.19
2022-12-05T00:33:44.460Z,2.17
2022-12-05T00:36:23.617Z,2.20
2022-12-05T00:38:51.180Z,2.20
2022-12-05T00:41:21.408Z,2.20
2022-12-05T00:43:48.829Z,2.20
2022-12-05T00:46:19.301Z,2.22
2022-12-05T00:48:46.890Z,2.22
2022-12-05T00:51:23.259Z,2.25
2022-12-05T00:53:50.748Z,2.24
2022-12-05T00:56:21.308Z,2.25
2022-12-05T00:58:49.238Z,2.26
2022-12-05T01:01:20.147Z,2.25
2022-12-05T01:03:48.486Z,2.25
2022-12-05T01:06:15.966Z,2.24
2022-12-05T01:08:43.226Z,2.25
2022-12-05T01:11:14.109Z,2.25
2022-12-05T01:13:41.138Z,2.20
2022-12-05T01:16:15.205Z,2.26
2022-12-05T01:18:42.311Z,2.28
2022-12-05T01:21:09.811Z,2.25
2022-12-05T01:23:37.650Z,2.25
2022-12-05T01:26:15.237Z,2.22
2022-12-05T01:28:43.190Z,2.24
2022-12-05T01:31:21.417Z,2.25
2022-12-05T01:33:48.801Z,2.19
2022-12-05T01:36:16.237Z,2.25
2022-12-05T01:38:44.278Z,2.20
2022-12-05T01:41:15.699Z,2.22
2022-12-05T01:43:58.014Z,2.17
2022-12-05T01:46:26.905Z,2.21
2022-12-05T01:49:02.149Z,2.18
2022-12-05T01:51:30.666Z,2.21
2022-12-05T01:53:58.477Z,2.20
2022-12-05T01:56:25.867Z,2.24
2022-12-05T01:58:53.957Z,2.21
2022-12-05T02:01:21.210Z,2.25
2022-12-05T02:03:52.690Z,2.20
2022-12-05T02:06:20.530Z,2.25
2022-12-05T02:08:47.553Z,2.26
2022-12-05T02:11:14.736Z,2.27
2022-12-05T02:14:12.378Z,2.28
2022-12-05T02:16:53.790Z,2.27
2022-12-05T02:19:58.571Z,2.19
2022-12-05T02:22:34.627Z,2.27
2022-12-05T02:25:39.106Z,2.28
2022-12-05T02:28:27.595Z,2.28
2022-12-05T02:30:58.130Z,2.25
2022-12-05T02:33:46.204Z,2.31
2022-12-05T02:36:21.472Z,2.27
2022-12-05T02:39:00.673Z,2.32
2022-12-05T02:41:35.104Z,2.22
2022-12-05T02:44:04.714Z,2.35
2022-12-05T02:46:36.244Z,2.29
2022-12-05T02:49:08.381Z,2.36
2022-12-05T02:51:57.881Z,2.35
2022-12-05T02:54:29.772Z,2.39
2022-12-05T02:56:59.277Z,2.39
2022-12-05T02:59:26.276Z,2.37
2022-12-05T03:01:53.411Z,2.40
2022-12-05T03:04:24.138Z,2.39
2022-12-05T03:06:59.865Z,2.43
2022-12-05T03:09:56.503Z,2.44
2022-12-05T03:12:32.226Z,2.39
2022-12-05T03:15:05.645Z,2.46
2022-12-05T03:17:36.885Z,2.44
2022-12-05T03:20:09.213Z,2.46
2022-12-05T03:22:46.635Z,2.49
2022-12-05T03:25:13.923Z,2.48
2022-12-05T03:27:49.686Z,2.48
2022-12-05T03:30:19.162Z,2.50
2022-12-05T03:33:10.340Z,2.45
2022-12-05T03:35:54.625Z,2.51
2022-12-05T03:38:24.243Z,2.51
2022-12-05T03:41:01.579Z,2.52
2022-12-05T03:43:44.578Z,2.45
2022-12-05T03:46:17.639Z,2.50
2022-12-05T03:48:56.160Z,2.56
2022-12-05T03:51:28.424Z,2.55
2022-12-05T03:54:27.595Z,2.58
2022-12-05T03:57:02.343Z,2.57
2022-12-05T03:59:39.631Z,2.58
2022-12-05T04:02:27.261Z,2.57
2022-12-05T04:05:09.592Z,2.56
2022-12-05T04:07:40.424Z,2.61
2022-12-05T04:10:15.606Z,2.58
2022-12-05T04:12:44.293Z,2.61
2022-12-05T04:15:17.220Z,2.58
2022-12-05T04:17:57.016Z,2.61
2022-12-05T04:20:55.549Z,2.61
2022-12-05T04:23:23.043Z,2.62
2022-12-05T04:26:24.567Z,2.64
2022-12-05T04:29:09.369Z,2.65
2022-12-05T04:31:48.346Z,2.65
2022-12-05T04:34:16.742Z,2.63
2022-12-05T04:37:10.673Z,2.67
2022-12-05T04:39:47.437Z,2.67
2022-12-05T04:42:19.813Z,2.66
2022-12-05T04:44:52.917Z,2.67
2022-12-05T04:47:24.506Z,2.71
2022-12-05T04:49:54.107Z,2.69
2022-12-05T04:52:22.482Z,2.75
2022-12-05T04:55:13.401Z,2.74
2022-12-05T04:57:59.882Z,2.75
2022-12-05T05:00:29.782Z,2.74
2022-12-05T05:03:19.319Z,2.75
2022-12-05T05:05:49.589Z,2.73
2022-12-05T05:08:19.110Z,2.75
2022-12-05T05:11:13.047Z,2.74
2022-12-05T05:13:40.123Z,2.74
2022-12-05T05:16:07.812Z,2.76
2022-12-05T05:18:34.900Z,2.77
2022-12-05T05:21:03.000Z,2.78
2022-12-05T05:23:30.328Z,2.82
2022-12-05T05:25:57.507Z,2.76
2022-12-05T05:28:24.607Z,2.84
2022-12-05T05:30:51.674Z,2.87
2022-12-05T05:33:18.825Z,2.87
2022-12-05T05:35:45.894Z,2.90
2022-12-05T05:38:12.975Z,2.92
2022-12-05T05:40:40.062Z,2.88
2022-12-05T05:43:07.115Z,2.90
2022-12-05T05:45:34.205Z,2.92
2022-12-05T05:48:01.502Z,2.93
2022-12-05T05:50:28.977Z,2.92
2022-12-05T05:52:56.065Z,2.99
2022-12-05T05:55:23.166Z,2.91
2022-12-05T05:57:50.204Z,3.03
2022-12-05T06:00:17.572Z,3.07
2022-12-05T06:02:44.784Z,3.04
2022-12-05T06:05:12.367Z,3.11
2022-12-05T06:07:39.522Z,3.15
2022-12-05T06:10:07.280Z,3.11
2022-12-05T06:12:34.419Z,3.13
2022-12-05T06:15:02.041Z,3.08
2022-12-05T06:17:29.958Z,3.12
2022-12-05T06:19:57.413Z,3.15
2022-12-05T06:22:24.596Z,3.15
2022-12-05T06:24:51.711Z,3.22
2022-12-05T06:27:18.730Z,3.11
2022-12-05T06:29:45.772Z,3.23
2022-12-05T06:32:12.850Z,3.24
2022-12-05T06:34:39.815Z,3.26
2022-12-05T06:37:06.834Z,3.22
2022-12-05T06:39:33.834Z,3.28
2022-12-05T06:42:01.246Z,3.29
2022-12-05T06:44:29.063Z,3.37
2022-12-05T06:46:56.597Z,3.37
2022-12-05T06:49:31.674Z,3.37
2022-12-05T06:51:59.798Z,3.39
2022-12-05T06:54:27.001Z,3.38
2022-12-05T06:56:54.240Z,3.35
2022-12-05T06:59:21.326Z,3.40
2022-12-05T07:01:49.096Z,3.42
2022-12-05T07:04:24.181Z,3.47
2022-12-05T07:06:54.358Z,3.45
2022-12-05T07:09:45.710Z,3.42
2022-12-05T07:12:14.880Z,3.49
2022-12-05T07:14:50.390Z,3.46
2022-12-05T07:17:18.959Z,3.49
2022-12-05T07:19:49.619Z,3.46
2022-12-05T07:22:21.551Z,3.48
2022-12-05T07:24:50.955Z,3.51
2022-12-05T07:27:23.279Z,3.51
2022-12-05T07:29:54.248Z,3.51
2022-12-05T07:32:21.439Z,3.40
2022-12-05T07:34:53.476Z,3.48
2022-12-05T07:37:22.220Z,3.53
2022-12-05T07:39:49.389Z,3.52
2022-12-05T07:42:16.812Z,3.53
2022-12-05T07:44:43.916Z,3.56
2022-12-05T07:47:11.006Z,3.49
2022-12-05T07:49:38.066Z,3.53
2022-12-05T07:52:05.114Z,3.56
2022-12-05T07:54:33.194Z,3.57
2022-12-05T07:57:00.445Z,3.54
2022-12-05T07:59:27.830Z,3.59
2022-12-05T08:01:54.942Z,3.58
2022-12-05T08:04:22.140Z,3.59
2022-12-05T08:06:49.132Z,3.60
2022-12-05T08:09:16.270Z,3.63
2022-12-05T08:11:46.945Z,3.63
2022-12-05T08:14:16.646Z,3.51
2022-12-05T08:16:43.676Z,3.61
2022-12-05T08:19:13.445Z,3.60
2022-12-05T08:21:40.595Z,3.58
2022-12-05T08:24:08.268Z,3.64
2022-12-05T08:26:36.328Z,3.69
2022-12-05T08:29:08.628Z,3.68
2022-12-05T08:31:40.627Z,3.70
2022-12-05T08:34:07.736Z,3.70
2022-12-05T08:36:34.846Z,3.70
2022-12-05T08:39:05.256Z,3.72
2022-12-05T08:41:33.001Z,3.71
2022-12-05T08:44:05.029Z,3.75
2022-12-05T08:46:35.211Z,3.75
2022-12-05T08:49:03.906Z,3.77
2022-12-05T08:51:30.901Z,3.66
2022-12-05T08:53:57.962Z,3.80
2022-12-05T08:56:27.543Z,3.74
2022-12-05T08:58:59.816Z,3.84
2022-12-05T09:01:33.686Z,3.80
2022-12-05T09:04:05.029Z,3.81
2022-12-05T09:06:34.870Z,3.79
2022-12-05T09:09:05.711Z,3.89
2022-12-05T09:11:37.666Z,3.90
2022-12-05T09:14:05.256Z,3.88
2022-12-05T09:16:38.193Z,3.93
2022-12-05T09:19:07.006Z,3.94
2022-12-05T09:21:33.945Z,3.92
2022-12-05T09:24:02.013Z,3.94
2022-12-05T09:26:30.124Z,3.94
2022-12-05T09:28:58.055Z,3.94
2022-12-05T09:31:30.935Z,3.97
2022-12-05T09:33:58.037Z,3.95
2022-12-05T09:36:27.603Z,4.01
2022-12-05T09:38:55.812Z,3.95
2022-12-05T09:41:45.736Z,4.02
2022-12-05T09:44:25.563Z,3.99
2022-12-05T09:46:59.927Z,4.00
2022-12-05T09:49:27.759Z,4.00
2022-12-05T09:51:55.820Z,3.99
2022-12-05T09:54:24.795Z,4.03
2022-12-05T09:56:53.318Z,4.02
2022-12-05T09:59:21.341Z,4.04
2022-12-05T10:01:48.259Z,4.06
2022-12-05T10:04:48.785Z,4.01
2022-12-05T10:07:26.145Z,4.09
2022-12-05T10:09:55.866Z,4.07
2022-12-05T10:12:50.086Z,4.11
2022-12-05T10:15:29.441Z,4.09
2022-12-05T10:18:38.430Z,4.11
2022-12-05T10:21:08.281Z,4.16
2022-12-05T10:24:00.054Z,4.15
2022-12-05T10:26:35.883Z,4.17
2022-12-05T10:29:17.937Z,4.20
2022-12-05T10:31:48.326Z,4.19
2022-12-05T10:34:29.684Z,4.22
2022-12-05T10:37:03.671Z,4.23
2022-12-05T10:39:30.989Z,4.24
2022-12-05T10:41:57.973Z,4.28
2022-12-05T10:44:25.124Z,4.29
2022-12-05T10:46:52.891Z,4.25
2022-12-05T10:49:21.024Z,4.18
2022-12-05T10:51:48.890Z,4.23
2022-12-05T10:54:22.153Z,4.24
2022-12-05T10:56:52.050Z,4.23
2022-12-05T10:59:25.793Z,4.20
2022-12-05T11:01:55.447Z,4.23
2022-12-05T11:04:31.883Z,4.25
2022-12-05T11:07:04.895Z,4.26
2022-12-05T11:09:39.100Z,4.23
2022-12-05T11:12:09.139Z,4.25
2022-12-05T11:14:36.335Z,4.22
2022-12-05T11:17:05.300Z,4.20
2022-12-05T11:19:37.648Z,4.22
2022-12-05T11:22:07.969Z,4.16
2022-12-05T11:24:39.109Z,4.26
2022-12-05T11:27:18.180Z,4.27
2022-12-05T11:30:02.134Z,4.23
2022-12-05T11:32:33.419Z,4.24
2022-12-05T11:35:08.249Z,4.29
2022-12-05T11:37:59.990Z,4.27
2022-12-05T11:40:49.830Z,4.27
2022-12-05T11:43:39.826Z,4.29
2022-12-05T11:46:39.213Z,4.30
2022-12-05T11:49:34.907Z,4.34
2022-12-05T11:52:24.307Z,4.32
2022-12-05T11:55:05.072Z,4.35
2022-12-05T11:57:52.680Z,4.35
2022-12-05T12:00:31.993Z,4.32
2022-12-05T12:03:16.553Z,4.31
2022-12-05T12:06:20.937Z,4.33
2022-12-05T12:09:33.749Z,4.25
2022-12-05T12:12:20.809Z,4.29
2022-12-05T12:15:15.368Z,4.29
2022-12-05T12:18:12.945Z,4.32
2022-12-05T12:21:05.376Z,4.23
2022-12-05T12:23:35.062Z,4.26
2022-12-05T12:26:12.340Z,4.28
2022-12-05T12:28:58.011Z,4.33
2022-12-05T12:31:32.328Z,4.25
2022-12-05T12:34:49.493Z,4.27
2022-12-05T12:37:53.889Z,4.27
2022-12-05T12:40:34.701Z,4.27
2022-12-05T12:46:54.211Z,4.29
2022-12-05T12:49:24.427Z,4.30
2022-12-05T12:51:55.021Z,4.28
2022-12-05T12:55:03.584Z,4.28
2022-12-05T12:57:34.638Z,4.30
2022-12-05T13:00:32.885Z,4.24
2022-12-05T13:03:11.984Z,4.25
2022-12-05T13:06:01.111Z,4.28
2022-12-05T13:09:03.826Z,4.29
2022-12-05T13:11:38.835Z,4.30
2022-12-05T13:14:12.996Z,4.31
2022-12-05T13:16:50.854Z,4.28
2022-12-05T13:19:39.023Z,4.22
2022-12-05T13:22:07.319Z,4.17
2022-12-05T13:24:35.282Z,4.22
2022-12-05T13:27:06.761Z,4.06
2022-12-05T13:29:41.154Z,4.19
2022-12-05T13:32:43.748Z,4.14
2022-12-05T13:35:14.324Z,4.11
2022-12-05T13:38:05.907Z,4.19
2022-12-05T13:41:08.196Z,4.15
2022-12-05T13:43:44.970Z,4.14
2022-12-05T13:46:26.166Z,4.13
2022-12-05T13:49:08.235Z,4.12
2022-12-05T13:51:42.436Z,4.10
2022-12-05T13:54:20.932Z,4.12
2022-12-05T13:57:02.326Z,4.14
2022-12-05T13:59:57.532Z,4.13
2022-12-05T14:02:46.920Z,4.12
2022-12-05T14:05:13.965Z,4.09
2022-12-05T14:07:43.107Z,4.11
2022-12-05T14:10:16.727Z,4.12
2022-12-05T14:12:58.672Z,4.08
2022-12-05T14:15:25.944Z,4.16
2022-12-05T14:18:01.212Z,4.07
2022-12-05T14:20:54.423Z,4.15
2022-12-05T14:23:55.010Z,4.17
2022-12-05T14:26:40.694Z,4.17
2022-12-05T14:29:27.878Z,4.18
2022-12-05T14:32:25.251Z,4.17
2022-12-05T14:35:01.196Z,4.21
2022-12-05T14:37:37.804Z,4.21
2022-12-05T14:40:18.182Z,4.20
2022-12-05T14:42:54.131Z,4.17
2022-12-05T14:45:32.999Z,4.22
2022-12-05T14:48:20.135Z,4.20
2022-12-05T14:50:49.916Z,4.17
2022-12-05T14:53:34.606Z,4.12
2022-12-05T14:56:12.098Z,4.14
2022-12-05T14:59:02.294Z,4.09
2022-12-05T15:01:40.483Z,4.09
2022-12-05T15:04:23.232Z,4.09
2022-12-05T15:06:55.689Z,4.10
2022-12-05T15:09:38.267Z,4.11
2022-12-05T15:12:12.267Z,4.16
2022-12-05T15:14:44.565Z,4.13
2022-12-05T15:17:18.573Z,4.09
2022-12-05T15:19:53.153Z,4.11
2022-12-05T15:22:22.783Z,4.14
2022-12-05T15:24:50.095Z,4.12
2022-12-05T15:27:17.278Z,4.12
2022-12-05T15:29:44.417Z,4.13
2022-12-05T15:32:11.371Z,4.13
2022-12-05T15:35:14.071Z,4.14
2022-12-05T15:37:46.006Z,4.11
2022-12-05T15:40:20.778Z,4.09
2022-12-05T15:42:56.031Z,4.14
2022-12-05T15:45:30.951Z,4.16
2022-12-05T15:48:06.982Z,4.16
2022-12-05T15:50:41.441Z,4.09
2022-12-05T15:53:54.001Z,4.10
2022-12-05T15:56:39.076Z,4.14
2022-12-05T15:59:28.226Z,4.14
2022-12-05T16:02:05.535Z,4.09
2022-12-05T16:04:54.307Z,4.16
2022-12-05T16:07:24.130Z,4.17
2022-12-05T16:09:52.070Z,4.15
2022-12-05T16:12:33.223Z,4.19
2022-12-05T16:15:14.081Z,4.14
2022-12-05T16:17:54.011Z,4.10
2022-12-05T16:20:33.338Z,4.11
2022-12-05T16:23:04.576Z,4.10
2022-12-05T16:25:33.757Z,4.14
2022-12-05T16:28:03.855Z,4.14
2022-12-05T16:30:32.469Z,4.14
2022-12-05T16:33:08.723Z,4.14
2022-12-05T16:35:43.436Z,4.12
2022-12-05T16:38:17.770Z,4.14
2022-12-05T16:40:58.106Z,4.16
2022-12-05T16:43:44.097Z,4.17
2022-12-05T16:46:11.111Z,4.18
2022-12-05T16:48:40.053Z,4.15
2022-12-05T16:51:39.935Z,4.16
2022-12-05T16:54:07.917Z,4.18
2022-12-05T16:56:35.174Z,4.17
2022-12-05T16:59:09.708Z,4.20
2022-12-05T17:01:39.076Z,4.22
2022-12-05T17:04:11.080Z,4.21
2022-12-05T17:06:39.292Z,4.22
2022-12-05T17:09:06.358Z,4.20
2022-12-05T17:11:36.995Z,4.19
2022-12-05T17:14:04.671Z,4.22
2022-12-05T17:16:32.215Z,4.17
2022-12-05T17:18:59.394Z,4.18
2022-12-05T17:21:32.103Z,4.18
2022-12-05T17:23:59.948Z,4.18
2022-12-05T17:26:27.177Z,4.19
2022-12-05T17:28:54.458Z,4.18
2022-12-05T17:31:24.579Z,4.19
2022-12-05T17:33:54.297Z,4.20
2022-12-05T17:36:21.574Z,4.18
2022-12-05T17:38:49.331Z,4.24
2022-12-05T17:41:19.063Z,4.22
2022-12-05T17:43:46.730Z,4.23
2022-12-05T17:46:20.151Z,4.20
2022-12-05T17:48:48.187Z,4.14
2022-12-05T17:51:15.510Z,4.20
2022-12-05T17:53:44.613Z,4.13
2022-12-05T17:56:12.184Z,4.22
2022-12-05T17:58:39.505Z,4.21
2022-12-05T18:01:06.767Z,4.20
2022-12-05T18:03:34.099Z,4.19
2022-12-05T18:06:04.078Z,4.20
2022-12-05T18:08:31.330Z,4.22
2022-12-05T18:10:58.386Z,4.18
2022-12-05T18:13:25.424Z,4.21
2022-12-05T18:15:57.874Z,4.22
2022-12-05T18:18:27.508Z,4.20
2022-12-05T18:21:12.352Z,4.14
2022-12-05T18:23:40.392Z,4.21
2022-12-05T18:26:10.059Z,4.23
2022-12-05T18:28:38.659Z,4.23
2022-12-05T18:31:16.758Z,4.25
2022-12-05T18:33:45.372Z,4.28
2022-12-05T18:36:17.119Z,4.21
2022-12-05T18:38:50.821Z,4.26
2022-12-05T18:41:17.981Z,4.27
2022-12-05T18:43:44.918Z,4.25
2022-12-05T18:46:12.084Z,4.21
2022-12-05T18:48:42.577Z,4.20
2022-12-05T18:51:16.109Z,4.16
2022-12-05T18:53:51.933Z,4.20
2022-12-05T18:56:28.626Z,4.26
2022-12-05T18:58:58.171Z,4.19
2022-12-05T19:01:26.507Z,4.24
2022-12-05T19:03:54.322Z,4.21
2022-12-05T19:06:25.243Z,4.26
2022-12-05T19:08:56.720Z,4.17
2022-12-05T19:11:26.318Z,4.24
2022-12-05T19:13:57.909Z,4.25
2022-12-05T19:16:25.702Z,4.27
2022-12-05T19:18:58.318Z,4.24
2022-12-05T19:21:27.381Z,4.22
2022-12-05T19:23:55.406Z,4.20
2022-12-05T19:26:23.276Z,4.20
2022-12-05T19:28:50.777Z,4.18
2022-12-05T19:31:20.928Z,4.21
2022-12-05T19:33:50.703Z,4.21
2022-12-05T19:36:21.122Z,4.14
2022-12-05T19:38:51.058Z,4.12
2022-12-05T19:41:24.854Z,4.20
2022-12-05T19:43:52.085Z,4.20
2022-12-05T19:46:30.315Z,4.16
2022-12-05T19:49:00.116Z,4.16
2022-12-05T19:51:27.592Z,4.16
2022-12-05T19:53:54.784Z,4.16
2022-12-05T19:56:26.626Z,4.20
2022-12-05T19:58:56.074Z,4.17
2022-12-05T20:01:24.816Z,4.17
2022-12-05T20:04:03.703Z,4.14
2022-12-05T20:06:37.828Z,4.12
2022-12-05T20:09:06.258Z,4.11
2022-12-05T20:11:33.742Z,4.17
2022-12-05T20:14:02.341Z,4.19
2022-12-05T20:16:29.756Z,4.12
2022-12-05T20:18:59.230Z,4.14
2022-12-05T20:21:28.748Z,4.16
2022-12-05T20:23:56.137Z,4.21
2022-12-05T20:26:29.149Z,4.18
2022-12-05T20:28:58.560Z,4.14
2022-12-05T20:31:34.767Z,4.21
2022-12-05T20:34:03.793Z,4.17
2022-12-05T20:36:33.221Z,4.16
2022-12-05T20:39:03.706Z,4.16
2022-12-05T20:41:31.420Z,4.14
2022-12-05T20:44:01.354Z,4.17
2022-12-05T20:46:29.206Z,4.14
2022-12-05T20:48:56.630Z,4.14
2022-12-05T20:51:29.538Z,4.19
2022-12-05T20:53:58.737Z,4.16
2022-12-05T20:56:30.490Z,4.17
2022-12-05T20:59:01.390Z,4.09
2022-12-05T21:01:31.042Z,4.20
2022-12-05T21:03:59.093Z,4.21
2022-12-05T21:06:32.373Z,4.19
2022-12-05T21:09:00.589Z,4.20
2022-12-05T21:11:29.046Z,4.17
2022-12-05T21:13:57.934Z,4.08
2022-12-05T21:16:25.071Z,4.18
2022-12-05T21:18:52.617Z,4.17
2022-12-05T21:21:22.719Z,4.17
2022-12-05T21:23:58.097Z,4.17
2022-12-05T21:26:27.356Z,4.16
2022-12-05T21:28:54.903Z,4.16
2022-12-05T21:31:51.685Z,4.18
2022-12-05T21:34:21.064Z,4.18
2022-12-05T21:36:48.585Z,4.18
2022-12-05T21:39:15.724Z,4.13
2022-12-05T21:41:42.883Z,4.15
2022-12-05T21:44:09.979Z,4.16
2022-12-05T21:46:36.974Z,4.17
2022-12-05T21:49:04.406Z,4.19
2022-12-05T21:51:31.363Z,4.15
2022-12-05T21:53:58.453Z,4.09
2022-12-05T21:56:25.629Z,4.18
2022-12-05T21:58:53.102Z,4.19
2022-12-05T22:01:23.311Z,4.21
2022-12-05T22:03:59.269Z,4.19
2022-12-05T22:06:26.359Z,4.21
2022-12-05T22:08:54.609Z,4.16
2022-12-05T22:11:23.350Z,4.22
2022-12-05T22:13:51.329Z,4.20
2022-12-05T22:16:19.128Z,4.25
2022-12-05T22:18:46.646Z,4.24
2022-12-05T22:21:21.104Z,4.29
2022-12-05T22:23:49.382Z,4.30
2022-12-05T22:26:19.470Z,4.27
2022-12-05T22:28:47.147Z,4.27
2022-12-05T22:31:16.288Z,4.28
2022-12-05T22:33:44.720Z,4.29
2022-12-05T22:36:14.349Z,4.28
2022-12-05T22:38:46.852Z,4.32
2022-12-05T22:41:19.120Z,4.27
2022-12-05T22:43:47.697Z,4.29
2022-12-05T22:46:17.878Z,4.32
2022-12-05T22:48:46.706Z,4.33
2022-12-05T22:51:14.347Z,4.27
2022-12-05T22:53:42.334Z,4.32
2022-12-05T22:56:14.406Z,4.32
2022-12-05T22:58:42.779Z,4.27
2022-12-05T23:01:12.864Z,4.28
2022-12-05T23:03:41.000Z,4.30
2022-12-05T23:06:11.779Z,4.27
2022-12-05T23:08:40.710Z,4.28
2022-12-05T23:11:08.680Z,4.27
2022-12-05T23:13:36.960Z,4.27
2022-12-05T23:16:14.600Z,4.26
2022-12-05T23:18:48.800Z,4.21
2022-12-05T23:21:19.303Z,4.27
2022-12-05T23:23:48.158Z,4.25
2022-12-05T23:26:16.049Z,4.21
2022-12-05T23:28:43.499Z,4.20
2022-12-05T23:31:12.236Z,4.20
2022-12-05T23:33:39.986Z,4.18
2022-12-05T23:36:07.802Z,4.19
2022-12-05T23:38:36.355Z,4.19
2022-12-05T23:41:07.423Z,4.16
2022-12-05T23:43:35.978Z,4.14
2022-12-05T23:46:05.196Z,4.23
2022-12-05T23:48:33.028Z,4.17
2022-12-05T23:51:04.575Z,4.17
2022-12-05T23:53:34.946Z,4.19
2022-12-05T23:56:05.247Z,4.17
2022-12-05T23:58:33.147Z,4.19
